Remanso, Brazil
Current Conditions -  °F | °C
As of 6:00 PM on Friday 24 Oct 2014 (Local Time) from SBCZ Reporting Station
Thunderstorm Thunderstorm  
Wind Chill: 81°   Ceiling: Unl
Heat Index: 87°   Visibility: 6mi
Dew Point: 77°   Wind: 0mph
Humidity: 89%   Direction: NA
Pressure: 29.71"   Gusts: NA
Location:  8.48°S, 73.05°W
Report Text: SBCZ 242300Z 00000KT 9999 TS SCT025 FEW030CB 27/25 Q1006
Loading
Personal Weather Stations






























Interactive Weather Map
Tropical Storm Tracking
New forecast layout! Learn more

10-Day Weather Forecast

Advertisements
Track Severe Weather on mobile